Terminal Aerodrome Forecast
Issued by NWS Burlington, VT

Home | Current Version | Previous Version | Text Only | Print | Product List | Glossary On
Versions: 1 2 3 4 5 6 7 8 9 10 11 12 13 14 15 16 17 18
000
FTUS41 KBTV 010903 AAB
TAFBTV
TAF AMD
KBTV 010903Z 0109/0206 18005KT P6SM FEW060 BKN110
      TEMPO 0109/0110 -SHRA SCT060 OVC110
     FM011300 23008KT P6SM SCT100
     FM020000 19004KT P6SM SCT080=

USA.gov is the U.S. government's official web portal to all federal, state and local government web resources and services.